Time;durP1;ratioP1;P1;durP2;ratioP2;P2;SDS_P1;SDS_P2;PMS_P1;PMS_P2;Temp;Humidity;BMP_temperature;BMP_pressure;BME280_temperature;BME280_humidity;BME280_pressure;Samples;Min_cycle;Max_cycle;Signal;HPM_P1;HPM_P2
2020/12/15 00:00:39;;;;;;;5.57;5.10;;;;;;;;;;2081194;28;20609;-62
2020/12/15 00:01:39;;;;;;;6.03;5.53;;;;;;;;;;2063877;28;20237;-61
2020/12/15 00:02:39;;;;;;;5.78;5.28;;;;;;;;;;2066643;28;20178;-61
2020/12/15 00:03:40;;;;;;;5.55;5.13;;;;;;;;;;2080684;28;20173;-60
2020/12/15 00:04:41;;;;;;;5.65;5.13;;;;;;;;;;2081500;28;20562;-61
2020/12/15 00:05:41;;;;;;;5.68;5.18;;;;;;;;;;2074110;28;20172;-60
2020/12/15 00:06:41;;;;;;;5.93;5.53;;;;;;;;;;2070793;28;20189;-61
2020/12/15 00:07:41;;;;;;;5.28;4.88;;;;;;;;;;2065984;28;20178;-58
2020/12/15 00:08:42;;;;;;;5.82;5.35;;;;;;;;;;2081871;28;20234;-61
2020/12/15 00:09:42;;;;;;;5.85;5.30;;;;;;;;;;2074453;28;20536;-60
2020/12/15 00:10:44;;;;;;;6.88;6.28;;;;;;;;;;2074197;28;20259;-61
2020/12/15 00:11:44;;;;;;;6.22;5.63;;;;;;;;;;2070272;28;20177;-59
2020/12/15 00:12:44;;;;;;;6.25;5.75;;;;;;;;;;2060451;28;20240;-57
2020/12/15 00:13:45;;;;;;;6.88;6.28;;;;;;;;;;2075294;28;20597;-61
2020/12/15 00:14:45;;;;;;;6.05;5.55;;;;;;;;;;2080544;28;20211;-61
2020/12/15 00:15:45;;;;;;;7.22;6.45;;;;;;;;;;2067149;28;20181;-60
2020/12/15 00:16:46;;;;;;;6.57;6.07;;;;;;;;;;2073834;28;20173;-61
2020/12/15 00:17:46;;;;;;;5.72;5.18;;;;;;;;;;2073861;28;20177;-62
2020/12/15 00:18:46;;;;;;;5.90;5.43;;;;;;;;;;2068768;28;20188;-61
2020/12/15 00:19:47;;;;;;;6.10;5.70;;;;;;;;;;2082422;28;20168;-62
2020/12/15 00:20:47;;;;;;;5.32;4.90;;;;;;;;;;2081414;28;20187;-62
2020/12/15 00:21:47;;;;;;;4.72;4.32;;;;;;;;;;2080827;28;20203;-60
2020/12/15 00:22:47;;;;;;;5.38;4.88;;;;;;;;;;2068705;28;20699;-61
2020/12/15 00:23:48;;;;;;;12.10;9.85;;;;;;;;;;2075077;28;20180;-61
2020/12/15 00:24:49;;;;;;;4.78;4.38;;;;;;;;;;2080928;28;20587;-62
2020/12/15 00:25:49;;;;;;;4.10;3.80;;;;;;;;;;2074377;28;20259;-61
2020/12/15 00:26:49;;;;;;;3.72;3.42;;;;;;;;;;2081829;28;20176;-57
2020/12/15 00:27:49;;;;;;;5.20;3.50;;;;;;;;;;2091925;22;20153;-61
2020/12/15 00:28:50;;;;;;;3.58;3.28;;;;;;;;;;2077146;28;20189;-64
2020/12/15 00:29:50;;;;;;;3.97;3.67;;;;;;;;;;2082407;28;20196;-62
2020/12/15 00:30:51;;;;;;;3.88;3.58;;;;;;;;;;2077601;28;20181;-64
2020/12/15 00:31:51;;;;;;;3.03;2.83;;;;;;;;;;2082426;28;20168;-62
2020/12/15 00:32:52;;;;;;;3.15;2.90;;;;;;;;;;2071830;28;20195;-62
2020/12/15 00:33:52;;;;;;;3.88;3.35;;;;;;;;;;2075188;28;20378;-61
2020/12/15 00:34:53;;;;;;;3.22;3.03;;;;;;;;;;2084680;28;20164;-61
2020/12/15 00:35:54;;;;;;;4.10;3.80;;;;;;;;;;2083880;28;20192;-63
2020/12/15 00:36:57;;;;;;;3.70;3.42;;;;;;;;;;2079481;28;20180;-63
2020/12/15 00:37:58;;;;;;;3.85;3.58;;;;;;;;;;2082649;28;20193;-62
2020/12/15 00:38:58;;;;;;;3.35;3.15;;;;;;;;;;2083936;28;20223;-62
2020/12/15 00:39:58;;;;;;;4.65;4.18;;;;;;;;;;2084535;28;20188;-62
2020/12/15 00:40:58;;;;;;;4.50;4.10;;;;;;;;;;2084286;28;20169;-63
2020/12/15 00:41:59;;;;;;;5.75;5.28;;;;;;;;;;2083631;28;20847;-62
2020/12/15 00:42:59;;;;;;;5.68;4.72;;;;;;;;;;2083865;28;20804;-62
2020/12/15 00:43:59;;;;;;;5.32;4.88;;;;;;;;;;2084684;28;20665;-64
2020/12/15 00:45:00;;;;;;;5.00;4.70;;;;;;;;;;2082173;28;20172;-66
2020/12/15 00:46:00;;;;;;;5.00;4.50;;;;;;;;;;2069899;28;20209;-63
2020/12/15 00:47:00;;;;;;;4.55;4.25;;;;;;;;;;2077632;28;20196;-60
2020/12/15 00:48:01;;;;;;;4.82;4.43;;;;;;;;;;2080051;28;20227;-64
2020/12/15 00:49:01;;;;;;;4.82;4.43;;;;;;;;;;2080818;28;20634;-63
2020/12/15 00:50:02;;;;;;;5.03;4.63;;;;;;;;;;2075811;28;20173;-60
2020/12/15 00:51:03;;;;;;;5.22;4.70;;;;;;;;;;2058780;28;20170;-60
2020/12/15 00:52:03;;;;;;;5.65;5.15;;;;;;;;;;2060096;28;20181;-62
2020/12/15 00:53:04;;;;;;;5.47;5.07;;;;;;;;;;2066563;28;20848;-60
2020/12/15 00:54:04;;;;;;;5.55;5.15;;;;;;;;;;2067734;28;20180;-64
2020/12/15 00:55:05;;;;;;;4.82;4.38;;;;;;;;;;2075393;28;20204;-60
2020/12/15 00:56:05;;;;;;;5.45;5.05;;;;;;;;;;2075727;28;20582;-61
2020/12/15 00:57:06;;;;;;;5.78;5.25;;;;;;;;;;2069535;28;20181;-62
2020/12/15 00:58:06;;;;;;;5.55;5.13;;;;;;;;;;2072005;28;20259;-63
2020/12/15 00:59:06;;;;;;;5.65;5.15;;;;;;;;;;2071787;28;20173;-64
2020/12/15 01:00:08;;;;;;;5.78;5.28;;;;;;;;;;2067203;28;20236;-63
2020/12/15 01:01:09;;;;;;;5.32;4.82;;;;;;;;;;2075428;28;20944;-64
2020/12/15 01:02:10;;;;;;;5.53;4.93;;;;;;;;;;2074039;28;20187;-63
2020/12/15 01:03:10;;;;;;;6.53;5.32;;;;;;;;;;2071206;28;20816;-62
2020/12/15 01:04:10;;;;;;;5.07;4.68;;;;;;;;;;2078444;28;20169;-60
2020/12/15 01:05:11;;;;;;;6.45;5.53;;;;;;;;;;2078865;28;20176;-64
2020/12/15 01:06:14;;;;;;;5.50;4.90;;;;;;;;;;2070712;28;20201;-60
2020/12/15 01:07:16;;;;;;;5.38;4.97;;;;;;;;;;2073576;28;20242;-63
2020/12/15 01:08:17;;;;;;;5.25;4.80;;;;;;;;;;2062336;28;20198;-62
2020/12/15 01:09:18;;;;;;;5.25;4.75;;;;;;;;;;2063380;28;20181;-61
2020/12/15 01:10:18;;;;;;;5.32;4.93;;;;;;;;;;2084263;28;20168;-61
2020/12/15 01:11:26;;;;;;;5.57;5.05;;;;;;;;;;2076421;28;20200;-63
2020/12/15 01:12:26;;;;;;;5.43;4.97;;;;;;;;;;2081370;28;20599;-61
2020/12/15 01:13:26;;;;;;;5.55;5.03;;;;;;;;;;2078751;28;20263;-60
2020/12/15 01:14:29;;;;;;;5.15;4.85;;;;;;;;;;2060497;28;20192;-61
2020/12/15 01:15:29;;;;;;;5.38;4.97;;;;;;;;;;2073704;28;20184;-61
2020/12/15 01:16:30;;;;;;;5.40;4.75;;;;;;;;;;2075502;28;20169;-61
2020/12/15 01:17:32;;;;;;;5.15;4.75;;;;;;;;;;2069226;28;20181;-62
2020/12/15 01:18:35;;;;;;;5.30;4.90;;;;;;;;;;2066640;28;20166;-61
2020/12/15 01:19:35;;;;;;;5.75;5.25;;;;;;;;;;2069227;28;20256;-63
2020/12/15 01:20:36;;;;;;;5.57;4.85;;;;;;;;;;2082101;28;20188;-63
2020/12/15 01:21:36;;;;;;;7.25;5.55;;;;;;;;;;2074356;28;20177;-62
2020/12/15 01:22:38;;;;;;;6.00;5.50;;;;;;;;;;2074921;28;20177;-64
2020/12/15 01:23:42;;;;;;;5.25;4.82;;;;;;;;;;2074763;28;20661;-64
2020/12/15 01:24:43;;;;;;;6.22;5.32;;;;;;;;;;2076141;28;20253;-62
2020/12/15 01:25:57;;;;;;;6.53;5.93;;;;;;;;;;2076858;28;20200;-62
2020/12/15 01:26:57;;;;;;;5.75;5.25;;;;;;;;;;2074147;28;20229;-64
2020/12/15 01:27:57;;;;;;;5.97;5.40;;;;;;;;;;2067062;28;20865;-60
2020/12/15 01:28:58;;;;;;;5.55;5.15;;;;;;;;;;2079925;28;20198;-61
2020/12/15 01:29:58;;;;;;;5.57;5.05;;;;;;;;;;2076116;28;20177;-63
2020/12/15 01:31:28;;;;;;;5.32;4.85;;;;;;;;;;2079213;28;20223;-63
2020/12/15 01:32:51;;;;;;;6.05;5.50;;;;;;;;;;2070766;28;20173;-61
2020/12/15 01:33:55;;;;;;;7.15;6.05;;;;;;;;;;2081614;28;20184;-61
2020/12/15 01:35:14;;;;;;;5.60;5.10;;;;;;;;;;2073039;28;20263;-62
2020/12/15 01:36:15;;;;;;;6.15;5.57;;;;;;;;;;2066445;28;20178;-60
2020/12/15 01:37:37;;;;;;;6.68;6.07;;;;;;;;;;2068329;28;20188;-61
2020/12/15 01:38:40;;;;;;;6.35;5.85;;;;;;;;;;2067363;28;20176;-63
2020/12/15 01:39:41;;;;;;;5.45;4.93;;;;;;;;;;2065983;28;20669;-63
2020/12/15 01:40:51;;;;;;;5.20;4.72;;;;;;;;;;2062296;28;20266;-60
2020/12/15 01:41:52;;;;;;;5.78;5.38;;;;;;;;;;2067602;28;20189;-61
2020/12/15 01:42:53;;;;;;;4.93;4.47;;;;;;;;;;2077842;28;20208;-61
2020/12/15 01:43:53;;;;;;;4.65;4.35;;;;;;;;;;2081139;28;20681;-63
2020/12/15 01:44:56;;;;;;;4.97;4.68;;;;;;;;;;2073453;28;20692;-62
2020/12/15 01:45:57;;;;;;;5.18;4.78;;;;;;;;;;2072039;28;20192;-64
2020/12/15 01:46:58;;;;;;;5.70;5.20;;;;;;;;;;2065110;28;20690;-62
2020/12/15 01:48:06;;;;;;;5.05;4.72;;;;;;;;;;2069720;28;20189;-63
2020/12/15 01:49:17;;;;;;;4.72;4.43;;;;;;;;;;2071169;28;20192;-61
2020/12/15 01:50:27;;;;;;;5.50;5.10;;;;;;;;;;2076438;28;20180;-61
2020/12/15 01:51:28;;;;;;;4.90;4.50;;;;;;;;;;2076076;28;20720;-60
2020/12/15 01:52:32;;;;;;;4.63;4.22;;;;;;;;;;2063265;28;20182;-62
2020/12/15 01:53:33;;;;;;;4.90;4.40;;;;;;;;;;2065348;28;20166;-62
2020/12/15 01:54:36;;;;;;;4.88;4.32;;;;;;;;;;2074687;28;20181;-63
2020/12/15 01:55:37;;;;;;;5.07;4.68;;;;;;;;;;2082137;28;20180;-63
2020/12/15 01:56:43;;;;;;;4.82;4.45;;;;;;;;;;2074672;28;20196;-62
2020/12/15 01:58:02;;;;;;;4.90;4.50;;;;;;;;;;2074077;28;20195;-62
2020/12/15 01:59:07;;;;;;;4.40;4.10;;;;;;;;;;2077997;28;20191;-64
2020/12/15 02:00:09;;;;;;;5.40;4.43;;;;;;;;;;2078294;28;20161;-60
2020/12/15 02:01:25;;;;;;;4.60;4.20;;;;;;;;;;2076133;28;20202;-64
2020/12/15 02:02:26;;;;;;;5.20;4.60;;;;;;;;;;2065744;28;20189;-64
2020/12/15 02:03:33;;;;;;;4.82;3.85;;;;;;;;;;2059787;28;20155;-58
2020/12/15 02:04:53;;;;;;;4.60;4.20;;;;;;;;;;2069979;28;20181;-62
2020/12/15 02:05:57;;;;;;;4.88;4.45;;;;;;;;;;2072869;28;20272;-62
2020/12/15 02:06:58;;;;;;;4.35;4.05;;;;;;;;;;2066152;28;20178;-62
2020/12/15 02:08:00;;;;;;;4.15;3.85;;;;;;;;;;2076530;28;20224;-61
2020/12/15 02:09:00;;;;;;;4.88;4.47;;;;;;;;;;2074325;28;20901;-62
2020/12/15 02:10:02;;;;;;;4.80;4.40;;;;;;;;;;2068793;28;20211;-62
2020/12/15 02:11:20;;;;;;;4.68;4.10;;;;;;;;;;2071579;28;20178;-61
2020/12/15 02:12:23;;;;;;;4.90;4.40;;;;;;;;;;2065629;28;20169;-62
2020/12/15 02:13:24;;;;;;;3.83;3.63;;;;;;;;;;2066173;28;20193;-65
2020/12/15 02:14:26;;;;;;;3.85;3.65;;;;;;;;;;2071610;28;20168;-63
2020/12/15 02:15:26;;;;;;;4.57;4.20;;;;;;;;;;2067100;28;20663;-62
2020/12/15 02:16:39;;;;;;;4.55;4.25;;;;;;;;;;2073748;28;20193;-63
2020/12/15 02:17:39;;;;;;;4.50;4.15;;;;;;;;;;2066257;28;20181;-65
2020/12/15 02:18:47;;;;;;;3.67;3.38;;;;;;;;;;2066878;28;20173;-62
2020/12/15 02:19:58;;;;;;;4.07;3.72;;;;;;;;;;2066739;28;20204;-64
2020/12/15 02:21:01;;;;;;;4.70;4.20;;;;;;;;;;2074602;28;20302;-59
2020/12/15 02:22:14;;;;;;;4.45;4.07;;;;;;;;;;2080893;28;20286;-64
2020/12/15 02:23:15;;;;;;;4.32;3.90;;;;;;;;;;2074728;28;20172;-62
2020/12/15 02:24:23;;;;;;;5.38;4.32;;;;;;;;;;2078601;28;20160;-62
2020/12/15 02:25:30;;;;;;;6.25;3.95;;;;;;;;;;2068970;28;20170;-61
2020/12/15 02:26:31;;;;;;;4.20;3.80;;;;;;;;;;2074776;28;20161;-60
2020/12/15 02:27:31;;;;;;;4.88;3.72;;;;;;;;;;2080766;28;20179;-62
2020/12/15 02:28:33;;;;;;;4.15;3.90;;;;;;;;;;2080722;28;20188;-63
2020/12/15 02:29:33;;;;;;;4.75;4.18;;;;;;;;;;2071445;28;20169;-61
2020/12/15 02:30:33;;;;;;;4.88;4.47;;;;;;;;;;2077797;28;20184;-62
2020/12/15 02:31:38;;;;;;;4.35;4.05;;;;;;;;;;2076246;28;20169;-61
2020/12/15 02:32:39;;;;;;;4.53;4.05;;;;;;;;;;2075319;28;20176;-57
2020/12/15 02:33:40;;;;;;;5.07;4.60;;;;;;;;;;2073691;28;20169;-62
2020/12/15 02:34:41;;;;;;;4.20;3.90;;;;;;;;;;2073564;28;20172;-63
2020/12/15 02:35:43;;;;;;;4.43;4.05;;;;;;;;;;2073693;28;20229;-62
2020/12/15 02:36:44;;;;;;;4.50;4.20;;;;;;;;;;2066631;28;20174;-61
2020/12/15 02:37:50;;;;;;;4.20;4.00;;;;;;;;;;2074295;28;20208;-61
2020/12/15 02:39:16;;;;;;;5.00;4.60;;;;;;;;;;2079254;28;20190;-60
2020/12/15 02:40:25;;;;;;;4.60;4.20;;;;;;;;;;2071262;28;20161;-62
2020/12/15 02:41:42;;;;;;;4.88;4.40;;;;;;;;;;2075825;28;20156;-58
2020/12/15 02:42:45;;;;;;;5.00;4.60;;;;;;;;;;2076500;28;20180;-59
2020/12/15 02:43:49;;;;;;;4.82;4.53;;;;;;;;;;2065990;28;20585;-61
2020/12/15 02:44:52;;;;;;;5.70;4.85;;;;;;;;;;2070906;28;20617;-63
2020/12/15 02:45:57;;;;;;;5.00;4.60;;;;;;;;;;2065079;28;20205;-61
2020/12/15 02:46:57;;;;;;;4.63;4.25;;;;;;;;;;2074083;28;20193;-59
2020/12/15 02:47:58;;;;;;;5.35;4.95;;;;;;;;;;2082050;28;20192;-58
2020/12/15 02:49:04;;;;;;;5.85;5.38;;;;;;;;;;2074608;28;20700;-60
2020/12/15 02:50:05;;;;;;;6.00;4.90;;;;;;;;;;2075106;28;20203;-60
2020/12/15 02:51:05;;;;;;;5.05;4.65;;;;;;;;;;2075100;28;20184;-60
2020/12/15 02:52:25;;;;;;;4.50;4.20;;;;;;;;;;2075723;28;20191;-60
2020/12/15 02:53:28;;;;;;;5.03;4.72;;;;;;;;;;2070040;28;20553;-61
2020/12/15 02:54:33;;;;;;;4.95;4.55;;;;;;;;;;2067038;28;20583;-58
2020/12/15 02:55:33;;;;;;;5.40;5.00;;;;;;;;;;2059285;28;20222;-61
2020/12/15 02:56:34;;;;;;;5.57;5.07;;;;;;;;;;2065870;28;20185;-60
2020/12/15 02:57:36;;;;;;;5.90;5.10;;;;;;;;;;2075296;28;20181;-60
2020/12/15 02:58:36;;;;;;;5.57;4.95;;;;;;;;;;2084181;28;20653;-61
2020/12/15 02:59:37;;;;;;;5.75;5.22;;;;;;;;;;2074491;28;20173;-59
2020/12/15 03:00:42;;;;;;;4.68;4.30;;;;;;;;;;2074948;28;20798;-60
2020/12/15 03:01:43;;;;;;;5.68;5.18;;;;;;;;;;2073897;28;20181;-60
2020/12/15 03:02:48;;;;;;;4.97;4.57;;;;;;;;;;2082257;28;20180;-60
2020/12/15 03:03:48;;;;;;;7.18;4.70;;;;;;;;;;2074041;28;20195;-60
2020/12/15 03:04:58;;;;;;;5.20;4.80;;;;;;;;;;2066739;28;20170;-61
2020/12/15 03:05:58;;;;;;;5.10;4.80;;;;;;;;;;2073328;28;20205;-62
2020/12/15 03:07:00;;;;;;;5.00;4.60;;;;;;;;;;2073742;28;20204;-61
2020/12/15 03:08:11;;;;;;;4.75;4.45;;;;;;;;;;2059887;28;20242;-59
2020/12/15 03:09:12;;;;;;;4.78;4.47;;;;;;;;;;2061735;28;20248;-62
2020/12/15 03:10:18;;;;;;;5.00;4.65;;;;;;;;;;2078701;28;20167;-60
2020/12/15 03:11:22;;;;;;;4.93;4.53;;;;;;;;;;2065799;28;20600;-60
2020/12/15 03:12:23;;;;;;;4.90;4.60;;;;;;;;;;2055612;28;20690;-62
2020/12/15 03:13:27;;;;;;;5.10;4.70;;;;;;;;;;2058117;28;20175;-61
2020/12/15 03:14:27;;;;;;;5.00;4.65;;;;;;;;;;2079681;28;20560;-61
2020/12/15 03:15:28;;;;;;;5.47;4.93;;;;;;;;;;2073952;28;20177;-62
2020/12/15 03:16:29;;;;;;;4.45;4.15;;;;;;;;;;2067576;28;20672;-60
2020/12/15 03:17:29;;;;;;;4.65;4.20;;;;;;;;;;2065076;28;20170;-62
2020/12/15 03:18:31;;;;;;;4.82;4.43;;;;;;;;;;2065810;28;20182;-62
2020/12/15 03:19:35;;;;;;;5.10;4.70;;;;;;;;;;2076164;28;20179;-61
2020/12/15 03:20:35;;;;;;;5.50;4.28;;;;;;;;;;2073319;28;20583;-60
2020/12/15 03:21:35;;;;;;;5.22;4.82;;;;;;;;;;2064617;28;20807;-60
2020/12/15 03:22:36;;;;;;;5.60;5.10;;;;;;;;;;2079299;28;20180;-61
2020/12/15 03:23:38;;;;;;;5.55;5.15;;;;;;;;;;2080048;28;20180;-61
2020/12/15 03:24:39;;;;;;;5.60;5.20;;;;;;;;;;2074596;28;20183;-60
2020/12/15 03:25:39;;;;;;;6.82;5.18;;;;;;;;;;2067022;28;20657;-61
2020/12/15 03:26:40;;;;;;;5.25;4.85;;;;;;;;;;2064589;28;20211;-60
2020/12/15 03:27:42;;;;;;;5.50;5.10;;;;;;;;;;2074574;28;20181;-61
2020/12/15 03:28:49;;;;;;;5.72;5.22;;;;;;;;;;2081619;28;20259;-57
2020/12/15 03:29:49;;;;;;;5.38;4.90;;;;;;;;;;2067016;28;20672;-61
2020/12/15 03:30:50;;;;;;;5.50;5.00;;;;;;;;;;2067848;28;20180;-62
2020/12/15 03:31:50;;;;;;;5.60;5.20;;;;;;;;;;2075985;28;20183;-62
2020/12/15 03:32:58;;;;;;;5.93;5.32;;;;;;;;;;2080906;28;20165;-60
2020/12/15 03:33:58;;;;;;;5.93;5.43;;;;;;;;;;2072921;28;20175;-62
2020/12/15 03:34:59;;;;;;;5.60;5.10;;;;;;;;;;2073894;28;20189;-60
2020/12/15 03:36:01;;;;;;;5.45;5.03;;;;;;;;;;2073844;28;20223;-60
2020/12/15 03:37:02;;;;;;;5.43;4.93;;;;;;;;;;2064292;28;20181;-62
2020/12/15 03:38:05;;;;;;;5.47;5.07;;;;;;;;;;2073584;28;20204;-59
2020/12/15 03:39:16;;;;;;;5.45;4.97;;;;;;;;;;2076281;28;20176;-61
2020/12/15 03:40:19;;;;;;;5.95;5.45;;;;;;;;;;2073979;28;20231;-60
2020/12/15 03:41:48;;;;;;;5.80;5.30;;;;;;;;;;2072915;28;20185;-60
2020/12/15 03:42:53;;;;;;;5.80;5.38;;;;;;;;;;2069488;28;20263;-63
2020/12/15 03:44:00;;;;;;;5.80;5.30;;;;;;;;;;2075708;28;20611;-60
2020/12/15 03:45:10;;;;;;;6.25;5.65;;;;;;;;;;2065902;28;20178;-62
2020/12/15 03:46:10;;;;;;;6.25;5.75;;;;;;;;;;2062494;28;20189;-62
2020/12/15 03:47:11;;;;;;;5.88;5.28;;;;;;;;;;2066450;28;20177;-59
2020/12/15 03:48:11;;;;;;;5.38;4.97;;;;;;;;;;2070389;28;20722;-61
2020/12/15 03:49:12;;;;;;;5.53;5.03;;;;;;;;;;2072340;28;20591;-62
2020/12/15 03:50:16;;;;;;;5.45;5.03;;;;;;;;;;2066521;28;20643;-61
2020/12/15 03:51:16;;;;;;;5.30;4.90;;;;;;;;;;2065808;28;20217;-61
2020/12/15 03:52:36;;;;;;;5.78;5.38;;;;;;;;;;2077381;28;20681;-60
2020/12/15 03:53:43;;;;;;;5.90;5.40;;;;;;;;;;2071126;28;20200;-60
2020/12/15 03:54:43;;;;;;;6.07;5.50;;;;;;;;;;2075229;28;20181;-61
2020/12/15 03:55:53;;;;;;;5.80;5.30;;;;;;;;;;2076506;28;20242;-59
2020/12/15 03:56:53;;;;;;;5.97;5.38;;;;;;;;;;2072343;28;20177;-67
2020/12/15 03:57:54;;;;;;;5.72;5.25;;;;;;;;;;2070070;28;20269;-61
2020/12/15 03:59:17;;;;;;;5.50;5.10;;;;;;;;;;2088198;28;20263;-62
2020/12/15 04:00:20;;;;;;;5.30;4.85;;;;;;;;;;2082295;28;20183;-61
2020/12/15 04:01:38;;;;;;;4.97;4.63;;;;;;;;;;2067646;28;20193;-60
2020/12/15 04:02:39;;;;;;;6.07;5.47;;;;;;;;;;2075056;28;20172;-62
2020/12/15 04:03:49;;;;;;;5.22;4.82;;;;;;;;;;2066775;28;20189;-59
2020/12/15 04:04:56;;;;;;;5.60;5.20;;;;;;;;;;2073598;28;20227;-62
2020/12/15 04:05:57;;;;;;;6.43;5.82;;;;;;;;;;2078314;28;20254;-61
2020/12/15 04:06:59;;;;;;;5.82;5.25;;;;;;;;;;2073228;28;20176;-58
2020/12/15 04:08:08;;;;;;;6.82;5.80;;;;;;;;;;2072509;28;20267;-61
2020/12/15 04:09:09;;;;;;;5.68;5.28;;;;;;;;;;2074641;28;20248;-60
2020/12/15 04:10:09;;;;;;;6.00;5.50;;;;;;;;;;2074691;28;20604;-59
2020/12/15 04:11:14;;;;;;;5.95;5.45;;;;;;;;;;2074177;28;20207;-60
2020/12/15 04:12:20;;;;;;;5.85;5.35;;;;;;;;;;2067861;28;20181;-61
2020/12/15 04:13:22;;;;;;;6.03;5.43;;;;;;;;;;2064910;28;20446;-61
2020/12/15 04:14:26;;;;;;;6.57;5.97;;;;;;;;;;2067965;28;20213;-61
2020/12/15 04:15:26;;;;;;;5.65;5.25;;;;;;;;;;2072920;28;20173;-60
2020/12/15 04:16:28;;;;;;;5.72;5.22;;;;;;;;;;2060094;28;20189;-60
2020/12/15 04:17:36;;;;;;;5.50;5.10;;;;;;;;;;2059920;28;20225;-62
2020/12/15 04:18:39;;;;;;;6.15;5.55;;;;;;;;;;2066556;28;20174;-62
2020/12/15 04:19:45;;;;;;;5.60;5.10;;;;;;;;;;2075428;28;20177;-60
2020/12/15 04:20:46;;;;;;;5.57;5.18;;;;;;;;;;2075056;28;20215;-61
2020/12/15 04:21:47;;;;;;;6.40;5.90;;;;;;;;;;2074462;28;20177;-60
2020/12/15 04:22:49;;;;;;;6.20;5.70;;;;;;;;;;2080946;28;20181;-59
2020/12/15 04:23:53;;;;;;;5.78;5.38;;;;;;;;;;2077677;28;20173;-62
2020/12/15 04:24:56;;;;;;;6.40;5.88;;;;;;;;;;2066585;28;20196;-59
2020/12/15 04:26:00;;;;;;;5.85;5.35;;;;;;;;;;2065845;28;20213;-60
2020/12/15 04:27:07;;;;;;;6.03;5.53;;;;;;;;;;2062858;28;20173;-62
2020/12/15 04:28:09;;;;;;;5.68;5.18;;;;;;;;;;2070323;28;20323;-61
2020/12/15 04:29:10;;;;;;;5.70;5.30;;;;;;;;;;2083086;28;20243;-60
2020/12/15 04:30:30;;;;;;;5.32;4.93;;;;;;;;;;2069377;28;20185;-60
2020/12/15 04:31:31;;;;;;;5.45;4.95;;;;;;;;;;2073272;28;20181;-61
2020/12/15 04:32:34;;;;;;;5.82;5.22;;;;;;;;;;2066244;28;20205;-61
2020/12/15 04:33:44;;;;;;;4.70;4.40;;;;;;;;;;2067386;28;20729;-62
2020/12/15 04:34:45;;;;;;;6.13;5.63;;;;;;;;;;2065686;28;20205;-57
2020/12/15 04:35:45;;;;;;;6.22;5.72;;;;;;;;;;2074085;28;20185;-60
2020/12/15 04:36:45;;;;;;;6.07;5.57;;;;;;;;;;2076472;28;20251;-62
2020/12/15 04:37:47;;;;;;;5.95;5.45;;;;;;;;;;2077875;28;20176;-59
2020/12/15 04:38:51;;;;;;;5.40;4.90;;;;;;;;;;2069634;28;20265;-62
2020/12/15 04:40:04;;;;;;;5.25;4.75;;;;;;;;;;2067553;28;20201;-60
2020/12/15 04:41:13;;;;;;;6.38;5.50;;;;;;;;;;2071431;28;20196;-60
2020/12/15 04:42:17;;;;;;;6.32;5.22;;;;;;;;;;2068211;28;20693;-62
2020/12/15 04:43:20;;;;;;;5.60;5.20;;;;;;;;;;2079178;28;20172;-61
2020/12/15 04:44:22;;;;;;;5.40;5.00;;;;;;;;;;2077083;28;20277;-61
2020/12/15 04:45:22;;;;;;;5.97;4.90;;;;;;;;;;2077170;28;20185;-62
2020/12/15 04:46:30;;;;;;;5.80;5.10;;;;;;;;;;2072054;28;20194;-62
2020/12/15 04:47:43;;;;;;;6.03;5.50;;;;;;;;;;2067668;28;20191;-61
2020/12/15 04:48:48;;;;;;;5.82;5.25;;;;;;;;;;2063245;28;20649;-62
2020/12/15 04:49:59;;;;;;;6.20;5.60;;;;;;;;;;2067175;28;20189;-60
2020/12/15 04:51:00;;;;;;;5.07;4.68;;;;;;;;;;2067080;28;20184;-62
2020/12/15 04:52:05;;;;;;;5.47;5.07;;;;;;;;;;2081422;28;20176;-62
2020/12/15 04:53:26;;;;;;;7.00;5.13;;;;;;;;;;2081927;28;20180;-62
2020/12/15 04:54:48;;;;;;;5.63;5.15;;;;;;;;;;2067372;28;20592;-61
2020/12/15 04:55:54;;;;;;;6.47;5.72;;;;;;;;;;2055151;28;20701;-60
2020/12/15 04:57:01;;;;;;;6.13;5.65;;;;;;;;;;2067905;28;20196;-61
2020/12/15 04:58:08;;;;;;;6.40;5.90;;;;;;;;;;2070695;28;20195;-59
2020/12/15 04:59:11;;;;;;;6.28;5.78;;;;;;;;;;2073566;28;20177;-63
2020/12/15 05:00:15;;;;;;;7.17;6.23;;;;;;;;;;2072475;28;20631;-60
2020/12/15 05:01:36;;;;;;;5.65;5.20;;;;;;;;;;2074816;28;20206;-61
2020/12/15 05:02:44;;;;;;;6.63;6.03;;;;;;;;;;2074727;28;20170;-58
2020/12/15 05:03:46;;;;;;;5.10;4.70;;;;;;;;;;2074773;28;20236;-60
2020/12/15 05:04:48;;;;;;;5.85;5.32;;;;;;;;;;2077754;28;20726;-63
2020/12/15 05:05:49;;;;;;;5.60;5.10;;;;;;;;;;2080503;28;20260;-62
2020/12/15 05:06:54;;;;;;;6.57;5.90;;;;;;;;;;2075816;28;20186;-62
2020/12/15 05:07:59;;;;;;;5.60;5.20;;;;;;;;;;2084748;28;20188;-61
2020/12/15 05:09:14;;;;;;;5.38;4.97;;;;;;;;;;2068569;28;20763;-62
2020/12/15 05:10:15;;;;;;;5.93;5.43;;;;;;;;;;2066860;28;20165;-60
2020/12/15 05:11:51;;;;;;;6.30;5.80;;;;;;;;;;2065023;28;20182;-61
2020/12/15 05:12:57;;;;;;;6.18;5.68;;;;;;;;;;2074781;28;20169;-61
2020/12/15 05:13:58;;;;;;;9.68;6.10;;;;;;;;;;2067868;28;20170;-61
2020/12/15 05:14:58;;;;;;;6.75;6.15;;;;;;;;;;2076105;28;20234;-62
2020/12/15 05:15:59;;;;;;;6.80;6.20;;;;;;;;;;2090088;28;20567;-62
2020/12/15 05:17:24;;;;;;;6.00;5.50;;;;;;;;;;2084710;28;20667;-60
2020/12/15 05:18:34;;;;;;;7.28;6.57;;;;;;;;;;2073921;28;20191;-62
2020/12/15 05:19:44;;;;;;;6.63;6.13;;;;;;;;;;2057080;28;20193;-60
2020/12/15 05:20:46;;;;;;;8.20;6.15;;;;;;;;;;2061303;28;20269;-59
2020/12/15 05:21:53;;;;;;;6.43;5.82;;;;;;;;;;2073179;28;20311;-59
2020/12/15 05:22:53;;;;;;;6.93;6.32;;;;;;;;;;2073861;28;20206;-60
2020/12/15 05:24:08;;;;;;;6.78;6.20;;;;;;;;;;2074244;28;20169;-61
2020/12/15 05:25:23;;;;;;;7.00;6.40;;;;;;;;;;2070639;28;20173;-59
2020/12/15 05:26:26;;;;;;;8.10;7.30;;;;;;;;;;2066982;28;20217;-60
2020/12/15 05:27:30;;;;;;;11.80;7.30;;;;;;;;;;2074935;28;20629;-59
2020/12/15 05:29:06;;;;;;;7.25;6.25;;;;;;;;;;2070492;28;20852;-61
2020/12/15 05:30:11;;;;;;;6.97;6.30;;;;;;;;;;2066159;28;20170;-60
2020/12/15 05:31:44;;;;;;;6.38;5.88;;;;;;;;;;2053157;28;20261;-61
2020/12/15 05:33:07;;;;;;;8.23;6.32;;;;;;;;;;2082528;28;20202;-59
2020/12/15 05:34:22;;;;;;;6.72;6.13;;;;;;;;;;2068476;28;20264;-60
2020/12/15 05:35:42;;;;;;;7.75;7.00;;;;;;;;;;2074538;28;20574;-61
2020/12/15 05:36:57;;;;;;;7.20;6.50;;;;;;;;;;2082455;28;20163;-62
2020/12/15 05:38:18;;;;;;;7.23;6.53;;;;;;;;;;2073933;28;20227;-60
2020/12/15 05:39:58;;;;;;;7.53;6.90;;;;;;;;;;2059714;28;20260;-59
2020/12/15 05:40:59;;;;;;;7.97;7.28;;;;;;;;;;2065748;28;20297;-61
2020/12/15 05:42:13;;;;;;;6.97;6.47;;;;;;;;;;2078749;28;20214;-59
2020/12/15 05:43:23;;;;;;;7.32;6.63;;;;;;;;;;2078189;28;20165;-60
2020/12/15 05:44:27;;;;;;;7.80;7.20;;;;;;;;;;2077973;28;20239;-57
2020/12/15 05:45:28;;;;;;;7.18;6.57;;;;;;;;;;2072914;28;20165;-61
2020/12/15 05:46:29;;;;;;;7.50;6.90;;;;;;;;;;2080869;28;20895;-58
2020/12/15 05:47:31;;;;;;;8.00;7.30;;;;;;;;;;2071811;28;20208;-59
2020/12/15 05:48:36;;;;;;;7.78;7.18;;;;;;;;;;2074465;28;20192;-60
2020/12/15 05:49:40;;;;;;;7.93;7.13;;;;;;;;;;2081309;28;20223;-61
2020/12/15 05:50:40;;;;;;;7.45;6.85;;;;;;;;;;2082612;28;20184;-61
2020/12/15 05:51:41;;;;;;;8.50;7.43;;;;;;;;;;2082633;28;20165;-62
2020/12/15 05:52:41;;;;;;;7.82;7.07;;;;;;;;;;2082247;28;20291;-59
2020/12/15 05:53:41;;;;;;;8.35;7.65;;;;;;;;;;2073508;28;20218;-61
2020/12/15 05:54:42;;;;;;;7.93;7.22;;;;;;;;;;2073960;28;20598;-60
2020/12/15 05:55:42;;;;;;;8.82;8.02;;;;;;;;;;2083041;28;20244;-60
2020/12/15 05:56:42;;;;;;;8.93;7.68;;;;;;;;;;2074221;28;20185;-57
2020/12/15 05:57:45;;;;;;;8.43;7.70;;;;;;;;;;2073179;28;20177;-57
2020/12/15 05:58:52;;;;;;;8.80;7.90;;;;;;;;;;2077529;28;20193;-62
2020/12/15 05:59:52;;;;;;;8.43;7.72;;;;;;;;;;2073347;28;20632;-61
2020/12/15 06:00:52;;;;;;;7.80;7.13;;;;;;;;;;2075024;28;20180;-61
2020/12/15 06:01:54;;;;;;;8.27;7.57;;;;;;;;;;2082896;28;20164;-58
2020/12/15 06:03:01;;;;;;;8.05;7.35;;;;;;;;;;2083155;28;20180;-60
2020/12/15 06:04:01;;;;;;;8.23;7.43;;;;;;;;;;2078178;28;20243;-62
2020/12/15 06:05:02;;;;;;;8.60;7.85;;;;;;;;;;2076774;28;20260;-63
2020/12/15 06:06:03;;;;;;;8.82;7.97;;;;;;;;;;2076216;28;20251;-62
2020/12/15 06:07:04;;;;;;;8.82;7.95;;;;;;;;;;2079596;28;20180;-63
2020/12/15 06:08:06;;;;;;;8.95;8.13;;;;;;;;;;2074439;28;20200;-60
2020/12/15 06:09:08;;;;;;;8.38;7.53;;;;;;;;;;2078662;28;20179;-63
2020/12/15 06:10:09;;;;;;;8.60;7.85;;;;;;;;;;2082211;28;20181;-61
2020/12/15 06:11:12;;;;;;;9.80;8.80;;;;;;;;;;2081562;28;20176;-60
2020/12/15 06:12:12;;;;;;;10.85;8.35;;;;;;;;;;2080365;28;20173;-60
2020/12/15 06:13:12;;;;;;;8.98;8.07;;;;;;;;;;2076075;28;20258;-59
2020/12/15 06:14:14;;;;;;;9.70;8.80;;;;;;;;;;2082930;28;20211;-60
2020/12/15 06:15:14;;;;;;;9.02;8.10;;;;;;;;;;2082981;28;20230;-59
2020/12/15 06:16:14;;;;;;;9.18;8.27;;;;;;;;;;2078595;28;20247;-62
2020/12/15 06:17:15;;;;;;;9.23;8.32;;;;;;;;;;2077731;28;20189;-62
2020/12/15 06:18:16;;;;;;;9.63;8.40;;;;;;;;;;2077175;28;20242;-60
2020/12/15 06:19:17;;;;;;;8.88;8.07;;;;;;;;;;2082458;28;20713;-65
2020/12/15 06:20:21;;;;;;;9.27;8.38;;;;;;;;;;2082236;28;20184;-62
2020/12/15 06:21:21;;;;;;;10.23;8.90;;;;;;;;;;2081704;28;20656;-60
2020/12/15 06:22:22;;;;;;;9.77;8.88;;;;;;;;;;2082446;28;20180;-61
2020/12/15 06:23:22;;;;;;;9.93;8.93;;;;;;;;;;2082449;28;20213;-59
2020/12/15 06:24:24;;;;;;;8.55;7.80;;;;;;;;;;2081778;28;20195;-62
2020/12/15 06:25:26;;;;;;;8.93;8.02;;;;;;;;;;2081890;28;20168;-60